Time;durP1;ratioP1;P1;durP2;ratioP2;P2;SDS_P1;SDS_P2;PMS_P1;PMS_P2;Temp;Humidity;BMP_temperature;BMP_pressure;BME280_temperature;BME280_humidity;BME280_pressure;Samples;Min_cycle;Max_cycle;Signal;HPM_P1;HPM_P2
2020/12/30 00:00:56;;;;;;;12.70;6.83;;;3.90;87.40;;;;;;6247907;22;20007;-85
2020/12/30 00:03:21;;;;;;;14.30;6.70;;;3.90;87.50;;;;;;6248510;22;20003;-85
2020/12/30 00:05:47;;;;;;;13.40;7.00;;;3.90;87.20;;;;;;6249037;22;20034;-85
2020/12/30 00:08:12;;;;;;;11.43;6.93;;;3.80;87.20;;;;;;6248180;22;20019;-85
2020/12/30 00:10:38;;;;;;;14.97;7.23;;;3.80;87.20;;;;;;6247644;22;20399;-85
2020/12/30 00:13:04;;;;;;;14.93;7.70;;;3.80;87.50;;;;;;6248294;22;20008;-85
2020/12/30 00:15:30;;;;;;;15.60;7.23;;;3.70;87.60;;;;;;6248694;22;20031;-85
2020/12/30 00:17:56;;;;;;;12.23;7.30;;;3.70;87.90;;;;;;6248516;22;20014;-86
2020/12/30 00:20:21;;;;;;;11.40;7.07;;;3.70;87.80;;;;;;6247742;22;20008;-85
2020/12/30 00:22:48;;;;;;;15.77;7.40;;;3.70;87.90;;;;;;6248635;22;20014;-85
2020/12/30 00:25:15;;;;;;;12.13;7.13;;;3.70;87.80;;;;;;6248299;22;20004;-85
2020/12/30 00:27:42;;;;;;;14.07;6.63;;;3.70;87.80;;;;;;6248332;22;20457;-85
2020/12/30 00:30:12;;;;;;;12.50;7.03;;;3.70;87.90;;;;;;6247586;22;20387;-85
2020/12/30 00:32:47;;;;;;;12.73;6.87;;;3.70;87.60;;;;;;6248304;22;20004;-85
2020/12/30 00:35:14;;;;;;;11.47;6.50;;;3.60;87.90;;;;;;6275458;22;19996;-85
2020/12/30 00:37:40;;;;;;;13.50;7.07;;;3.60;87.80;;;;;;6275389;22;20010;-86
2020/12/30 00:40:06;;;;;;;13.37;7.50;;;3.60;87.80;;;;;;6247462;22;20004;-86
2020/12/30 00:42:33;;;;;;;12.70;7.07;;;3.60;88.00;;;;;;6275311;22;20446;-86
2020/12/30 00:44:59;;;;;;;12.87;6.90;;;3.60;88.10;;;;;;6248068;22;20027;-85
2020/12/30 00:47:26;;;;;;;15.47;6.80;;;3.60;88.20;;;;;;6248475;22;20003;-86
2020/12/30 00:49:51;;;;;;;13.00;7.30;;;3.60;88.00;;;;;;6247901;22;20003;-86
2020/12/30 00:52:17;;;;;;;14.53;7.20;;;3.50;88.10;;;;;;6276737;22;20054;-85
2020/12/30 00:54:43;;;;;;;13.50;6.80;;;3.50;88.30;;;;;;6275276;22;19995;-85
2020/12/30 00:57:08;;;;;;;14.20;6.93;;;3.50;88.50;;;;;;6248098;22;20007;-86
2020/12/30 00:59:34;;;;;;;15.17;7.93;;;3.50;88.30;;;;;;6274620;22;20006;-86
2020/12/30 01:01:59;;;;;;;14.50;7.47;;;3.50;88.10;;;;;;6248590;22;20050;-86
2020/12/30 01:04:25;;;;;;;13.77;6.83;;;3.50;88.10;;;;;;6250503;22;20004;-85
2020/12/30 01:06:52;;;;;;;16.37;7.53;;;3.50;88.90;;;;;;6275664;22;20071;-86
2020/12/30 01:09:18;;;;;;;14.87;7.53;;;3.50;88.10;;;;;;6274559;22;20074;-86
2020/12/30 01:11:44;;;;;;;14.30;7.10;;;3.50;88.00;;;;;;6275215;22;20106;-85
2020/12/30 01:14:09;;;;;;;13.17;6.90;;;3.40;88.20;;;;;;6248199;22;20497;-85
2020/12/30 01:16:35;;;;;;;15.87;7.80;;;3.40;88.40;;;;;;6248151;22;20418;-85
2020/12/30 01:19:01;;;;;;;15.80;7.80;;;3.40;88.40;;;;;;6247498;22;20008;-85
2020/12/30 01:21:26;;;;;;;14.90;7.37;;;3.40;88.50;;;;;;6276976;22;20053;-85
2020/12/30 01:23:52;;;;;;;15.50;7.60;;;3.40;88.60;;;;;;6277456;22;20004;-85
2020/12/30 01:26:18;;;;;;;13.17;7.20;;;3.30;88.60;;;;;;6250124;22;20004;-86
2020/12/30 01:28:43;;;;;;;17.37;7.70;;;3.20;89.00;;;;;;6250241;22;20000;-86
2020/12/30 01:31:09;;;;;;;15.47;7.73;;;3.20;89.30;;;;;;6276388;22;20071;-85
2020/12/30 01:33:34;;;;;;;17.00;7.83;;;3.20;89.50;;;;;;6250496;22;20014;-85
2020/12/30 01:36:00;;;;;;;16.60;8.23;;;3.20;89.40;;;;;;6252078;22;20054;-85
2020/12/30 01:38:25;;;;;;;16.90;7.63;;;3.10;89.40;;;;;;6269729;22;20008;-85
2020/12/30 01:40:55;;;;;;;13.37;7.20;;;3.00;89.20;;;;;;6269665;22;20017;-86
2020/12/30 01:43:21;;;;;;;14.10;7.50;;;3.00;89.20;;;;;;6259776;22;20004;-86
2020/12/30 01:45:49;;;;;;;14.37;7.13;;;2.90;89.20;;;;;;6250345;22;20014;-85
2020/12/30 01:48:17;;;;;;;13.33;7.40;;;3.00;89.20;;;;;;6249927;22;20430;-85
2020/12/30 01:50:43;;;;;;;15.17;6.97;;;2.90;89.00;;;;;;6249477;22;20004;-85
2020/12/30 01:53:09;;;;;;;14.57;6.57;;;2.90;88.70;;;;;;6249819;22;20004;-85
2020/12/30 01:55:40;;;;;;;16.17;7.33;;;2.80;89.30;;;;;;6250132;22;20405;-85
2020/12/30 01:58:10;;;;;;;15.37;7.43;;;2.70;89.40;;;;;;6249940;22;20004;-86
2020/12/30 02:00:36;;;;;;;14.13;7.10;;;2.70;89.80;;;;;;6249082;22;20038;-85
2020/12/30 02:03:04;;;;;;;12.83;6.90;;;2.60;90.00;;;;;;6250127;22;20349;-86
2020/12/30 02:05:31;;;;;;;13.67;7.43;;;2.60;90.10;;;;;;6249929;22;20061;-86
2020/12/30 02:08:01;;;;;;;14.97;6.83;;;2.60;90.20;;;;;;6276644;22;20122;-85
2020/12/30 02:10:27;;;;;;;13.20;6.97;;;2.60;90.20;;;;;;6249085;22;20442;-86
2020/12/30 02:12:57;;;;;;;13.80;6.83;;;2.60;90.20;;;;;;6249681;22;20011;-86
2020/12/30 02:15:29;;;;;;;;;;;2.70;90.20;;;;;;6250282;22;20007;-85
2020/12/30 02:17:56;;;;;;;13.23;6.50;;;2.60;90.20;;;;;;6249618;22;19922;-85
2020/12/30 02:20:22;;;;;;;13.83;7.37;;;2.70;90.40;;;;;;6248873;22;20439;-86
2020/12/30 02:23:08;;;;;;;14.40;7.03;;;2.70;90.30;;;;;;6249188;22;20087;-85
2020/12/30 02:25:34;;;;;;;12.83;7.00;;;2.70;90.10;;;;;;6249689;22;20082;-85
2020/12/30 02:28:00;;;;;;;13.50;6.93;;;2.70;90.20;;;;;;6249138;22;20050;-85
2020/12/30 02:30:26;;;;;;;14.13;7.40;;;2.60;90.10;;;;;;6248906;22;20329;-85
2020/12/30 02:32:52;;;;;;;13.57;7.53;;;2.60;90.10;;;;;;6276212;22;20063;-86
2020/12/30 02:35:22;;;;;;;14.80;7.77;;;2.60;90.40;;;;;;6249532;22;20086;-86
2020/12/30 02:37:48;;;;;;;14.33;7.20;;;2.70;90.40;;;;;;6249411;22;20008;-86
2020/12/30 02:40:14;;;;;;;12.70;7.00;;;2.60;90.90;;;;;;6275883;22;20011;-86
2020/12/30 02:42:40;;;;;;;16.23;7.77;;;2.60;90.40;;;;;;6249424;22;20015;-85
2020/12/30 02:45:07;;;;;;;16.30;7.83;;;2.60;90.60;;;;;;6249479;22;20422;-85
2020/12/30 02:47:33;;;;;;;14.77;7.17;;;2.60;90.70;;;;;;6249345;22;20507;-85
2020/12/30 02:49:59;;;;;;;12.83;7.37;;;2.70;90.70;;;;;;6248570;22;20446;-86
2020/12/30 02:52:26;;;;;;;15.73;7.77;;;2.70;90.80;;;;;;6276267;22;19992;-85
2020/12/30 02:54:52;;;;;;;14.33;7.73;;;2.80;90.90;;;;;;6249325;22;20011;-85
2020/12/30 02:57:18;;;;;;;15.17;7.83;;;2.90;91.00;;;;;;6276363;22;20430;-85
2020/12/30 02:59:44;;;;;;;15.00;7.27;;;2.90;90.90;;;;;;6248905;22;20053;-85
2020/12/30 03:02:10;;;;;;;14.33;8.30;;;3.00;90.90;;;;;;6249183;22;20011;-85
2020/12/30 03:04:35;;;;;;;14.27;8.03;;;3.10;90.90;;;;;;6249253;22;20012;-85
2020/12/30 03:07:01;;;;;;;13.97;7.77;;;3.20;90.80;;;;;;6249434;22;20044;-81
2020/12/30 03:09:27;;;;;;;18.70;8.73;;;3.20;90.90;;;;;;6249206;22;20334;-82
2020/12/30 03:11:52;;;;;;;15.77;8.27;;;3.20;90.90;;;;;;6276872;22;20133;-81
2020/12/30 03:14:21;;;;;;;18.00;8.90;;;3.20;90.90;;;;;;6276682;22;20008;-81
2020/12/30 03:16:47;;;;;;;16.75;8.55;;;3.20;90.90;;;;;;6274864;22;20006;-82
2020/12/30 03:19:13;;;;;;;19.23;8.73;;;3.30;91.00;;;;;;6245405;23;20511;-82
2020/12/30 03:21:39;;;;;;;16.17;8.70;;;3.30;90.90;;;;;;6245595;23;20028;-81
2020/12/30 03:24:05;;;;;;;15.77;8.87;;;3.20;91.00;;;;;;6245765;23;20454;-81
2020/12/30 03:26:33;;;;;;;15.50;8.60;;;3.30;91.10;;;;;;6245720;23;20355;-81
2020/12/30 03:29:02;;;;;;;14.80;8.77;;;3.30;91.10;;;;;;6245626;22;20007;-82
2020/12/30 03:31:32;;;;;;;21.45;9.15;;;3.40;91.00;;;;;;6246020;23;20330;-82
2020/12/30 03:33:57;;;;;;;16.07;8.90;;;3.30;90.80;;;;;;6218798;23;20008;-81
2020/12/30 03:36:24;;;;;;;16.17;8.00;;;3.30;91.00;;;;;;6245123;23;20004;-81
2020/12/30 03:38:50;;;;;;;19.27;8.63;;;3.30;90.90;;;;;;6243990;22;20000;-81
2020/12/30 03:41:16;;;;;;;13.10;7.93;;;3.30;91.00;;;;;;6244583;23;20083;-82
2020/12/30 03:43:42;;;;;;;18.27;9.03;;;3.30;91.00;;;;;;6244735;23;20035;-81
2020/12/30 03:46:07;;;;;;;17.40;8.83;;;3.30;91.20;;;;;;6245466;23;19996;-81
2020/12/30 03:48:33;;;;;;;16.87;9.23;;;3.30;91.30;;;;;;6245301;22;20004;-82
2020/12/30 03:50:59;;;;;;;18.40;9.57;;;3.40;91.20;;;;;;6244595;23;20008;-82
2020/12/30 03:53:25;;;;;;;18.27;9.67;;;3.40;91.30;;;;;;6245547;23;20453;-81
2020/12/30 03:55:51;;;;;;;17.83;9.67;;;3.40;91.30;;;;;;6245286;23;20027;-81
2020/12/30 03:58:16;;;;;;;18.83;10.10;;;3.40;91.20;;;;;;6245206;22;20426;-82
2020/12/30 04:00:42;;;;;;;18.20;9.87;;;3.50;91.20;;;;;;6244630;23;20011;-81
2020/12/30 04:03:07;;;;;;;21.33;10.60;;;3.40;91.20;;;;;;6245631;23;20005;-81
2020/12/30 04:05:33;;;;;;;18.97;10.70;;;3.50;91.10;;;;;;6243600;23;19996;-82
2020/12/30 04:07:59;;;;;;;20.93;10.30;;;3.50;91.30;;;;;;6245226;22;20042;-81
2020/12/30 04:10:24;;;;;;;18.13;10.17;;;3.40;91.30;;;;;;6244520;23;20000;-81
2020/12/30 04:12:50;;;;;;;18.10;10.07;;;3.40;91.20;;;;;;6244859;23;20039;-81
2020/12/30 04:15:16;;;;;;;16.77;9.90;;;3.40;91.20;;;;;;6245457;23;20423;-82
2020/12/30 04:17:42;;;;;;;17.63;10.53;;;3.40;91.40;;;;;;6245168;22;19996;-81
2020/12/30 04:20:08;;;;;;;17.47;9.80;;;3.40;91.30;;;;;;6243039;23;20126;-82
2020/12/30 04:22:33;;;;;;;20.17;10.57;;;3.50;91.30;;;;;;6245203;23;20075;-82
2020/12/30 04:24:59;;;;;;;19.20;10.63;;;3.40;91.40;;;;;;6218233;23;20015;-81
2020/12/30 04:27:24;;;;;;;19.90;10.93;;;3.50;91.40;;;;;;6245504;22;20000;-81
2020/12/30 04:29:50;;;;;;;22.17;11.00;;;3.50;91.30;;;;;;6217903;23;20073;-81
2020/12/30 04:32:16;;;;;;;18.67;10.90;;;3.50;91.20;;;;;;6245023;23;20366;-81
2020/12/30 04:34:41;;;;;;;18.47;10.80;;;3.50;91.30;;;;;;6246177;23;20050;-81
2020/12/30 04:37:07;;;;;;;21.23;11.17;;;3.50;91.30;;;;;;6245523;22;20111;-82
2020/12/30 04:39:32;;;;;;;24.50;11.90;;;3.60;91.30;;;;;;6245581;23;20335;-81
2020/12/30 04:42:00;;;;;;;20.00;10.90;;;3.60;91.20;;;;;;6246136;23;20000;-81
2020/12/30 04:44:32;;;;;;;22.90;11.53;;;3.60;91.30;;;;;;6245153;23;20008;-81
2020/12/30 04:46:59;;;;;;;20.07;11.40;;;3.60;91.30;;;;;;6246659;22;20085;-80
2020/12/30 04:49:26;;;;;;;20.70;11.23;;;3.60;91.20;;;;;;6218839;23;20443;-81
2020/12/30 04:51:55;;;;;;;23.57;11.73;;;3.60;91.30;;;;;;6246064;23;20003;-81
2020/12/30 04:54:21;;;;;;;21.87;11.77;;;3.60;91.20;;;;;;6221306;23;20147;-81
2020/12/30 04:56:57;;;;;;;19.93;11.50;;;3.60;91.30;;;;;;6248900;22;20377;-82
2020/12/30 04:59:29;;;;;;;21.00;11.87;;;3.60;91.20;;;;;;6248110;23;20006;-82
2020/12/30 05:02:05;;;;;;;23.27;11.80;;;3.60;91.30;;;;;;6249163;23;20308;-81
2020/12/30 05:04:33;;;;;;;21.60;11.97;;;3.60;91.40;;;;;;6248683;23;20004;-82
2020/12/30 05:07:02;;;;;;;24.40;12.03;;;3.60;91.40;;;;;;6248124;22;20007;-81
2020/12/30 05:09:28;;;;;;;20.27;11.98;;;3.60;91.40;;;;;;6222043;23;20063;-82
2020/12/30 05:11:53;;;;;;;23.20;12.67;;;3.60;91.40;;;;;;6247177;23;20431;-82
2020/12/30 05:14:19;;;;;;;21.27;12.00;;;3.60;91.50;;;;;;6247427;23;20100;-82
2020/12/30 05:16:45;;;;;;;22.47;12.40;;;3.60;91.40;;;;;;6249325;22;20027;-81
2020/12/30 05:19:10;;;;;;;23.30;12.30;;;3.70;91.50;;;;;;6249090;23;20000;-82
2020/12/30 05:21:36;;;;;;;23.87;12.30;;;3.60;91.60;;;;;;6249160;23;20008;-82
2020/12/30 05:24:04;;;;;;;23.37;12.60;;;3.70;91.50;;;;;;6249830;23;20004;-82
2020/12/30 05:26:32;;;;;;;19.00;11.67;;;3.70;91.30;;;;;;6249696;23;20071;-82
2020/12/30 05:28:59;;;;;;;23.13;13.03;;;3.80;91.40;;;;;;6221466;23;20423;-82
2020/12/30 05:31:24;;;;;;;20.97;12.67;;;3.70;91.50;;;;;;6249926;23;20427;-82
2020/12/30 05:33:50;;;;;;;23.30;12.73;;;3.70;91.50;;;;;;6248457;23;20047;-82
2020/12/30 05:36:15;;;;;;;21.40;13.10;;;3.70;91.40;;;;;;6249878;23;20008;-81
2020/12/30 05:38:41;;;;;;;23.60;12.23;;;3.80;91.40;;;;;;6249615;22;20010;-81
2020/12/30 05:41:20;;;;;;;22.37;12.10;;;3.80;91.40;;;;;;6247512;23;20011;-82
2020/12/30 05:43:47;;;;;;;24.88;11.80;;;3.80;91.30;;;;;;6249890;23;20000;-82
2020/12/30 05:46:25;;;;;;;21.67;12.33;;;3.80;91.30;;;;;;6250987;23;19996;-82
2020/12/30 05:48:52;;;;;;;24.80;13.50;;;3.80;91.30;;;;;;6250427;22;20000;-82
2020/12/30 05:51:30;;;;;;;26.10;13.80;;;3.70;91.30;;;;;;6223960;23;20000;-81
2020/12/30 05:54:12;;;;;;;22.67;12.67;;;3.80;91.30;;;;;;6221667;23;20440;-81
2020/12/30 05:56:39;;;;;;;25.53;13.87;;;3.70;91.40;;;;;;6245605;23;20067;-81
2020/12/30 05:59:05;;;;;;;26.50;13.70;;;3.70;91.40;;;;;;6218367;23;20494;-81
2020/12/30 06:01:34;;;;;;;24.37;12.93;;;3.70;91.60;;;;;;6243954;22;20011;-80
2020/12/30 06:04:17;;;;;;;23.97;13.00;;;3.70;91.30;;;;;;6245531;23;20004;-81
2020/12/30 06:06:45;;;;;;;21.27;11.83;;;3.80;91.30;;;;;;6245600;22;19996;-80
2020/12/30 06:09:17;;;;;;;19.33;11.63;;;3.80;91.30;;;;;;6246772;23;20004;-81
2020/12/30 06:11:51;;;;;;;22.60;12.77;;;3.80;91.20;;;;;;6247601;23;20004;-81
2020/12/30 06:14:18;;;;;;;19.53;12.43;;;3.80;91.20;;;;;;6247899;23;20330;-81
2020/12/30 06:16:44;;;;;;;20.23;11.40;;;3.80;91.30;;;;;;6220574;22;20026;-81
2020/12/30 06:19:14;;;;;;;23.17;12.37;;;3.80;91.10;;;;;;6246918;23;20000;-80
2020/12/30 06:21:46;;;;;;;21.30;11.73;;;3.80;91.20;;;;;;6247441;23;20501;-81
2020/12/30 06:24:15;;;;;;;21.03;11.60;;;3.80;91.20;;;;;;6245707;23;20011;-81
2020/12/30 06:26:42;;;;;;;21.30;13.02;;;3.80;91.20;;;;;;6247601;22;20003;-81
2020/12/30 06:29:13;;;;;;;24.17;13.10;;;3.80;91.20;;;;;;6220291;23;20008;-81
2020/12/30 06:31:49;;;;;;;20.53;11.87;;;3.80;91.50;;;;;;6247358;23;20075;-82
2020/12/30 06:34:16;;;;;;;21.47;11.23;;;3.80;91.20;;;;;;6248066;23;20008;-81
2020/12/30 06:36:43;;;;;;;22.73;12.27;;;3.80;91.20;;;;;;6246973;22;20028;-82
2020/12/30 06:39:26;;;;;;;26.37;13.10;;;3.80;91.20;;;;;;6248252;23;20008;-81
2020/12/30 06:41:58;;;;;;;25.73;13.17;;;3.80;91.20;;;;;;6249359;23;20035;-82
2020/12/30 06:44:41;;;;;;;25.03;12.53;;;3.80;91.10;;;;;;6247455;22;20008;-81
2020/12/30 06:47:12;;;;;;;22.50;12.27;;;3.80;91.10;;;;;;6247719;22;20027;-81
2020/12/30 06:49:38;;;;;;;21.93;12.73;;;3.80;91.10;;;;;;6247744;23;19996;-82
2020/12/30 06:52:24;;;;;;;23.10;12.70;;;3.80;91.10;;;;;;6248184;23;20006;-82
2020/12/30 06:54:50;;;;;;;20.87;11.73;;;3.80;91.10;;;;;;6248608;23;20039;-82
2020/12/30 06:57:41;;;;;;;20.13;11.93;;;3.80;91.10;;;;;;6247617;22;20001;-81
2020/12/30 07:00:29;;;;;;;20.13;12.27;;;3.80;91.10;;;;;;6248004;23;20050;-81
2020/12/30 07:03:14;;;;;;;20.07;11.57;;;3.80;91.20;;;;;;6247794;23;20315;-81
2020/12/30 07:05:40;;;;;;;21.07;12.17;;;3.80;91.10;;;;;;6222048;23;20005;-81
2020/12/30 07:08:08;;;;;;;23.23;12.33;;;3.80;91.10;;;;;;6247126;22;20038;-81
2020/12/30 07:10:54;;;;;;;23.43;12.70;;;3.80;91.00;;;;;;6220466;23;20027;-81
2020/12/30 07:13:27;;;;;;;21.13;12.73;;;3.80;91.00;;;;;;6248323;23;20012;-81
2020/12/30 07:16:20;;;;;;;22.87;12.57;;;3.80;90.90;;;;;;6248192;23;20502;-82
2020/12/30 07:18:48;;;;;;;20.93;12.27;;;3.80;90.90;;;;;;6249091;22;20033;-81
2020/12/30 07:21:15;;;;;;;25.00;12.63;;;3.80;90.90;;;;;;6248226;23;20007;-80
2020/12/30 07:23:45;;;;;;;24.17;13.50;;;3.80;90.90;;;;;;6248778;23;20000;-81
2020/12/30 07:26:19;;;;;;;24.97;13.63;;;3.80;90.60;;;;;;6248535;23;20022;-82
2020/12/30 07:28:46;;;;;;;26.07;14.37;;;3.80;90.70;;;;;;6247677;22;20001;-81
2020/12/30 07:31:13;;;;;;;21.77;12.37;;;3.80;90.60;;;;;;6247693;23;19996;-81
2020/12/30 07:33:39;;;;;;;24.70;13.30;;;3.80;90.80;;;;;;6248250;23;20019;-81
2020/12/30 07:36:08;;;;;;;22.67;13.47;;;3.80;90.60;;;;;;6250274;23;20008;-81
2020/12/30 07:38:34;;;;;;;25.80;13.40;;;3.80;90.70;;;;;;6250226;22;20031;-82
2020/12/30 07:41:07;;;;;;;24.53;13.33;;;3.80;90.60;;;;;;6251790;23;20011;-82
2020/12/30 07:43:50;;;;;;;22.70;13.83;;;3.80;90.60;;;;;;6225058;23;20078;-81
2020/12/30 07:46:20;;;;;;;24.90;13.97;;;3.80;90.60;;;;;;6250884;23;20083;-82
2020/12/30 07:48:46;;;;;;;25.27;13.57;;;3.80;90.60;;;;;;6247304;22;20400;-82
2020/12/30 07:51:13;;;;;;;25.60;14.43;;;3.90;90.50;;;;;;6245315;23;20008;-82
2020/12/30 07:53:39;;;;;;;30.20;14.60;;;3.90;90.60;;;;;;6246817;23;20000;-81
2020/12/30 07:56:05;;;;;;;29.97;14.43;;;3.80;90.50;;;;;;6245077;23;20382;-81
2020/12/30 07:58:30;;;;;;;29.10;14.80;;;3.80;90.60;;;;;;6244698;22;20054;-81
2020/12/30 08:00:56;;;;;;;27.27;14.27;;;3.90;90.60;;;;;;6246808;23;20000;-81
2020/12/30 08:03:22;;;;;;;28.30;14.60;;;3.80;90.60;;;;;;6246938;23;20079;-81
2020/12/30 08:05:51;;;;;;;26.90;13.73;;;3.90;90.60;;;;;;6246520;23;20027;-81
2020/12/30 08:08:17;;;;;;;28.55;14.48;;;3.90;90.50;;;;;;6246137;22;20138;-81
2020/12/30 08:10:49;;;;;;;26.70;13.83;;;3.90;90.40;;;;;;6246010;23;20000;-82
2020/12/30 08:13:15;;;;;;;31.13;15.70;;;3.90;90.40;;;;;;6246202;23;20000;-81
2020/12/30 08:15:53;;;;;;;26.57;14.33;;;3.90;90.40;;;;;;6244733;23;20015;-81
2020/12/30 08:18:19;;;;;;;24.77;14.03;;;3.90;90.40;;;;;;6219238;23;20393;-81
2020/12/30 08:20:45;;;;;;;23.73;14.07;;;3.90;90.50;;;;;;6245843;23;20000;-82
2020/12/30 08:23:11;;;;;;;24.57;13.50;;;3.90;90.30;;;;;;6219717;23;20008;-81
2020/12/30 08:25:36;;;;;;;24.17;13.40;;;3.90;90.40;;;;;;6220182;23;20004;-81
2020/12/30 08:28:06;;;;;;;24.77;13.60;;;3.90;90.30;;;;;;6246643;22;20441;-81
2020/12/30 08:30:34;;;;;;;27.00;14.05;;;3.90;90.40;;;;;;6246211;23;20007;-81
2020/12/30 08:33:11;;;;;;;27.10;14.35;;;3.90;90.50;;;;;;6246329;23;20003;-81
2020/12/30 08:35:48;;;;;;;25.87;14.10;;;3.90;90.50;;;;;;6246894;23;19996;-81
2020/12/30 08:38:18;;;;;;;24.97;14.30;;;3.90;90.40;;;;;;6247058;22;20380;-81
2020/12/30 08:40:50;;;;;;;24.77;13.70;;;3.90;90.40;;;;;;6245941;23;20027;-81
2020/12/30 08:43:41;;;;;;;26.33;14.03;;;3.80;90.40;;;;;;6246700;23;20008;-80
2020/12/30 08:46:09;;;;;;;27.27;14.37;;;3.90;90.50;;;;;;6246318;23;20359;-81
2020/12/30 08:48:44;;;;;;;30.20;14.87;;;3.90;90.50;;;;;;6246163;22;20007;-81
2020/12/30 08:51:10;;;;;;;26.73;14.93;;;3.90;90.40;;;;;;6245325;23;20076;-80
2020/12/30 08:53:39;;;;;;;27.83;14.70;;;3.80;90.40;;;;;;6219900;23;20053;-82
2020/12/30 08:56:07;;;;;;;26.30;13.90;;;3.90;90.40;;;;;;6244857;23;20012;-81
2020/12/30 08:58:33;;;;;;;28.07;14.20;;;3.90;90.40;;;;;;6246396;22;20369;-80
2020/12/30 09:00:59;;;;;;;28.23;14.10;;;3.90;90.50;;;;;;6245621;23;20343;-82
2020/12/30 09:03:26;;;;;;;25.17;13.57;;;3.90;90.50;;;;;;6246235;23;20000;-82
2020/12/30 09:05:57;;;;;;;25.57;13.73;;;4.00;90.40;;;;;;6246353;23;20007;-80
2020/12/30 09:08:24;;;;;;;29.03;15.20;;;4.00;90.50;;;;;;6278733;22;20022;-84
2020/12/30 09:10:51;;;;;;;27.70;14.43;;;4.00;90.50;;;;;;6286230;22;19995;-85
2020/12/30 09:13:37;;;;;;;29.10;14.77;;;3.90;90.60;;;;;;6287888;22;20003;-84
2020/12/30 09:16:04;;;;;;;27.97;14.27;;;4.00;90.60;;;;;;6286768;22;20057;-85
2020/12/30 09:18:30;;;;;;;28.67;15.23;;;4.00;90.70;;;;;;6269816;22;20004;-84
2020/12/30 09:20:56;;;;;;;28.20;14.93;;;4.00;90.80;;;;;;6255060;22;20008;-85
2020/12/30 09:23:26;;;;;;;27.57;14.23;;;4.00;90.70;;;;;;6256647;22;20085;-84
2020/12/30 09:25:53;;;;;;;29.77;15.30;;;4.00;90.70;;;;;;6255622;22;20011;-85
2020/12/30 09:28:20;;;;;;;27.43;14.23;;;4.00;90.80;;;;;;6282698;22;20010;-84
2020/12/30 09:30:52;;;;;;;24.83;13.90;;;4.00;90.80;;;;;;6255521;22;20004;-84
2020/12/30 09:33:25;;;;;;;26.77;14.47;;;4.00;90.80;;;;;;6252978;22;20030;-84
2020/12/30 09:35:52;;;;;;;27.37;13.97;;;4.00;90.90;;;;;;6283301;22;20603;-84
2020/12/30 09:38:20;;;;;;;26.33;15.03;;;4.00;90.90;;;;;;6256131;22;20004;-84
2020/12/30 09:40:49;;;;;;;26.80;14.27;;;4.10;91.10;;;;;;6256024;22;20057;-84
2020/12/30 09:43:17;;;;;;;28.23;14.93;;;4.10;91.10;;;;;;6256868;22;20345;-84
2020/12/30 09:45:43;;;;;;;29.43;14.23;;;4.00;91.00;;;;;;6258642;22;20006;-84
2020/12/30 09:48:20;;;;;;;25.53;14.60;;;4.10;91.10;;;;;;6257427;22;20030;-85
2020/12/30 09:50:47;;;;;;;26.03;14.97;;;4.10;91.10;;;;;;6257499;22;20011;-84
2020/12/30 09:53:13;;;;;;;28.13;14.87;;;4.00;91.20;;;;;;6257604;22;20011;-84
2020/12/30 09:55:43;;;;;;;26.57;14.43;;;4.00;91.50;;;;;;6285838;22;20073;-85
2020/12/30 09:58:10;;;;;;;;;;;4.10;91.40;;;;;;6284640;22;20019;-84
2020/12/30 10:01:01;;;;;;;28.60;14.60;;;4.10;91.30;;;;;;6283983;22;19941;-85
2020/12/30 10:03:27;;;;;;;31.23;14.87;;;4.10;91.30;;;;;;6257514;22;20246;-85
2020/12/30 10:05:52;;;;;;;26.03;13.97;;;4.10;91.30;;;;;;6257497;22;20005;-84
2020/12/30 10:08:18;;;;;;;28.90;16.10;;;4.10;91.40;;;;;;6257408;22;20015;-84
2020/12/30 10:10:43;;;;;;;30.80;16.10;;;4.10;91.30;;;;;;6258425;22;20003;-85
2020/12/30 10:13:09;;;;;;;27.90;15.33;;;4.20;91.40;;;;;;6285680;22;19995;-86
2020/12/30 10:15:35;;;;;;;28.93;16.03;;;4.20;91.50;;;;;;6260458;22;20030;-85
2020/12/30 10:18:01;;;;;;;32.83;17.07;;;4.20;91.50;;;;;;6265044;22;20012;-85
2020/12/30 10:20:27;;;;;;;31.80;15.70;;;4.20;91.50;;;;;;6259889;22;20000;-84
2020/12/30 10:22:55;;;;;;;29.87;15.13;;;4.10;91.60;;;;;;6257314;22;20316;-85
2020/12/30 10:25:20;;;;;;;29.53;15.50;;;4.20;91.60;;;;;;6262499;22;20011;-86
2020/12/30 10:27:46;;;;;;;30.90;15.50;;;4.20;91.60;;;;;;6262351;22;20087;-86
2020/12/30 10:30:12;;;;;;;32.83;16.90;;;4.20;91.70;;;;;;6261034;22;20007;-85
2020/12/30 10:32:38;;;;;;;28.53;15.93;;;4.20;92.00;;;;;;6256618;22;20026;-85
2020/12/30 10:35:05;;;;;;;31.70;16.97;;;4.20;91.90;;;;;;6283357;22;19999;-86
2020/12/30 10:37:30;;;;;;;29.73;15.83;;;4.20;92.00;;;;;;6286593;22;20000;-86
2020/12/30 10:39:56;;;;;;;31.60;16.43;;;4.30;92.10;;;;;;6288539;22;20000;-86
2020/12/30 10:42:22;;;;;;;29.43;15.47;;;4.20;92.10;;;;;;6260814;22;19992;-85
2020/12/30 10:44:47;;;;;;;31.33;16.07;;;4.30;92.20;;;;;;6256485;22;20012;-85
2020/12/30 10:47:13;;;;;;;31.00;16.37;;;4.30;92.20;;;;;;6257420;22;20330;-85
2020/12/30 10:49:39;;;;;;;33.23;16.83;;;4.40;92.20;;;;;;6282782;22;19996;-85
2020/12/30 10:52:05;;;;;;;32.23;16.70;;;4.40;92.20;;;;;;6284710;22;19996;-85
2020/12/30 10:54:31;;;;;;;29.87;15.67;;;4.40;92.30;;;;;;6256168;22;20031;-85
2020/12/30 11:04:43;;;;;;;33.87;16.83;;;4.50;92.20;;;;;;6298074;22;20354;-87
2020/12/30 11:07:09;;;;;;;30.97;15.93;;;4.50;92.20;;;;;;6246378;22;20070;-87
2020/12/30 11:09:34;;;;;;;29.77;16.23;;;4.50;92.30;;;;;;6271338;22;19996;-85
2020/12/30 11:12:00;;;;;;;34.13;16.73;;;4.40;92.20;;;;;;6298158;22;19996;-85
2020/12/30 11:14:27;;;;;;;31.80;16.60;;;4.50;92.30;;;;;;6272018;22;19995;-84
2020/12/30 11:16:56;;;;;;;32.20;16.03;;;4.40;92.30;;;;;;6267636;22;20082;-87
2020/12/30 11:19:21;;;;;;;30.40;15.98;;;4.50;92.30;;;;;;6258428;22;20000;-85
2020/12/30 11:21:54;;;;;;;33.03;15.70;;;4.50;92.30;;;;;;6268877;22;20007;-86
2020/12/30 11:24:20;;;;;;;32.93;16.93;;;4.50;92.30;;;;;;6269129;22;20053;-86
2020/12/30 11:26:47;;;;;;;31.40;16.30;;;4.50;92.30;;;;;;6264273;22;20011;-86
2020/12/30 11:29:13;;;;;;;29.23;15.50;;;4.50;92.20;;;;;;6261157;22;19987;-86
2020/12/30 11:31:38;;;;;;;33.57;15.33;;;4.50;92.30;;;;;;6282651;22;20006;-86
2020/12/30 11:34:04;;;;;;;30.70;15.73;;;4.50;92.40;;;;;;6266309;22;20427;-85
2020/12/30 11:36:30;;;;;;;30.53;16.10;;;4.50;92.40;;;;;;6263087;22;20007;-85
2020/12/30 11:38:56;;;;;;;28.97;15.40;;;4.50;92.40;;;;;;6301575;22;20004;-86
2020/12/30 11:41:21;;;;;;;30.13;15.97;;;4.60;92.40;;;;;;6268538;22;19995;-85
2020/12/30 11:43:47;;;;;;;30.80;15.33;;;4.60;92.40;;;;;;6269094;22;20007;-86
2020/12/30 11:46:17;;;;;;;31.93;16.33;;;4.60;92.50;;;;;;6254408;22;20000;-86
2020/12/30 11:48:42;;;;;;;;;;;4.60;92.20;;;;;;6254361;22;20011;-86
2020/12/30 11:51:08;;;;;;;29.87;15.00;;;4.60;92.10;;;;;;6254977;22;19899;-86
2020/12/30 11:53:34;;;;;;;31.67;15.47;;;4.60;92.10;;;;;;6254698;22;20063;-86
2020/12/30 11:56:01;;;;;;;31.77;15.67;;;4.60;92.00;;;;;;6281526;22;20003;-86
2020/12/30 11:58:27;;;;;;;32.87;16.43;;;4.60;91.70;;;;;;6254160;22;20003;-85
2020/12/30 12:00:53;;;;;;;31.53;15.97;;;4.70;91.80;;;;;;6253608;22;20003;-86
2020/12/30 12:03:19;;;;;;;31.10;16.00;;;4.70;91.80;;;;;;6280334;22;20035;-86
2020/12/30 12:05:44;;;;;;;33.33;15.70;;;4.70;91.80;;;;;;6280217;22;20437;-86
2020/12/30 12:08:10;;;;;;;30.40;16.17;;;4.70;91.60;;;;;;6253164;22;19992;-86
2020/12/30 12:10:35;;;;;;;31.53;15.67;;;4.70;91.60;;;;;;6254531;22;20099;-85
2020/12/30 12:13:01;;;;;;;29.80;15.37;;;4.80;91.50;;;;;;6280887;22;20010;-86
2020/12/30 12:15:27;;;;;;;32.23;16.17;;;4.70;91.60;;;;;;6253129;22;19999;-86
2020/12/30 12:17:52;;;;;;;31.00;15.97;;;4.70;91.50;;;;;;6276145;22;20034;-86
2020/12/30 12:20:18;;;;;;;32.10;16.57;;;4.80;91.50;;;;;;6250660;22;19999;-86
2020/12/30 12:22:44;;;;;;;33.60;17.13;;;4.70;91.20;;;;;;6250995;22;20480;-85
2020/12/30 12:25:10;;;;;;;30.07;15.70;;;4.70;91.10;;;;;;6251324;22;20035;-86
2020/12/30 12:27:35;;;;;;;32.77;16.03;;;4.80;91.20;;;;;;6277573;22;19996;-85
2020/12/30 12:30:01;;;;;;;33.53;16.33;;;4.80;91.20;;;;;;6279807;22;19996;-86
2020/12/30 12:32:27;;;;;;;31.13;16.83;;;4.80;91.20;;;;;;6253842;22;20431;-87
2020/12/30 12:34:55;;;;;;;35.33;17.77;;;4.80;91.10;;;;;;6276910;22;20083;-86
2020/12/30 12:37:23;;;;;;;35.80;17.20;;;4.80;91.30;;;;;;6276047;22;20008;-85
2020/12/30 12:39:51;;;;;;;32.77;16.27;;;4.70;91.30;;;;;;6249404;22;20042;-86
2020/12/30 12:42:18;;;;;;;34.80;15.43;;;4.70;91.30;;;;;;6249200;22;20014;-85
2020/12/30 12:44:44;;;;;;;27.13;15.13;;;4.80;91.50;;;;;;6249156;22;20383;-85
2020/12/30 12:47:09;;;;;;;27.87;15.60;;;4.80;91.50;;;;;;6249270;22;20039;-86
2020/12/30 12:49:36;;;;;;;30.53;16.10;;;4.70;91.70;;;;;;6249551;22;20030;-86
2020/12/30 12:52:02;;;;;;;31.33;16.13;;;4.80;91.40;;;;;;6249476;22;20333;-86